Time;durP1;ratioP1;P1;durP2;ratioP2;P2;SDS_P1;SDS_P2;PMS_P1;PMS_P2;Temp;Humidity;BMP_temperature;BMP_pressure;BME280_temperature;BME280_humidity;BME280_pressure;Samples;Min_cycle;Max_cycle;Signal;HPM_P1;HPM_P2
2022/07/13 00:02:26;;;;;;;5.33;1.73;;;;;;;;;;5114954;28;20222;-80
2022/07/13 00:04:57;;;;;;;4.17;3.70;;;;;;;;;;5129482;27;20212;-81
2022/07/13 00:07:28;;;;;;;4.93;2.97;;;;;;;;;;5116113;28;20200;-81
2022/07/13 00:09:59;;;;;;;6.87;3.80;;;;;;;;;;5115864;28;20251;-80
2022/07/13 00:12:30;;;;;;;10.00;4.10;;;;;;;;;;5114980;28;20254;-81
2022/07/13 00:15:01;;;;;;;3.80;3.40;;;;;;;;;;5115802;28;20213;-81
2022/07/13 00:17:32;;;;;;;5.07;3.67;;;;;;;;;;5114916;28;20311;-81
2022/07/13 00:20:06;;;;;;;4.07;3.30;;;;;;;;;;5114688;28;20209;-81
2022/07/13 00:22:35;;;;;;;6.73;4.40;;;;;;;;;;5131653;27;20306;-80
2022/07/13 00:25:04;;;;;;;5.27;3.93;;;;;;;;;;5115601;28;20200;-80
2022/07/13 00:27:39;;;;;;;4.27;3.30;;;;;;;;;;5115714;28;20200;-81
2022/07/13 00:30:08;;;;;;;6.40;4.50;;;;;;;;;;5114943;28;20233;-80
2022/07/13 00:32:43;;;;;;;5.23;4.00;;;;;;;;;;5114951;28;20245;-81
2022/07/13 00:35:12;;;;;;;7.33;4.17;;;;;;;;;;5114649;28;20282;-81
2022/07/13 00:37:43;;;;;;;5.20;4.37;;;;;;;;;;5114215;28;20204;-80
2022/07/13 00:40:15;;;;;;;4.47;4.07;;;;;;;;;;5114445;28;20206;-80
2022/07/13 00:42:48;;;;;;;5.07;4.57;;;;;;;;;;5114385;28;20208;-80
2022/07/13 00:45:20;;;;;;;4.50;4.03;;;;;;;;;;5114242;28;20198;-80
2022/07/13 00:47:51;;;;;;;4.23;3.83;;;;;;;;;;5114126;28;20201;-80
2022/07/13 00:50:24;;;;;;;4.03;3.63;;;;;;;;;;5114448;28;20201;-80
2022/07/13 00:52:53;;;;;;;4.20;3.60;;;;;;;;;;5114151;28;20199;-80
2022/07/13 00:55:27;;;;;;;5.33;3.07;;;;;;;;;;5114160;28;20202;-80
2022/07/13 00:58:02;;;;;;;6.17;3.93;;;;;;;;;;5130951;27;20206;-80
2022/07/13 01:00:31;;;;;;;4.87;4.27;;;;;;;;;;5114567;28;20196;-80
2022/07/13 01:03:02;;;;;;;6.13;4.03;;;;;;;;;;5113781;28;20211;-80
2022/07/13 01:05:30;;;;;;;4.53;3.93;;;;;;;;;;5114908;28;20211;-80
2022/07/13 01:08:04;;;;;;;5.13;3.97;;;;;;;;;;5113781;28;20240;-80
2022/07/13 01:10:34;;;;;;;5.30;2.77;;;;;;;;;;5114889;28;20199;-80
2022/07/13 01:13:03;;;;;;;4.77;4.27;;;;;;;;;;5116416;27;20250;-80
2022/07/13 01:15:38;;;;;;;4.10;3.70;;;;;;;;;;5113969;28;20204;-80
2022/07/13 01:18:12;;;;;;;3.33;2.50;;;;;;;;;;5130721;27;20240;-80
2022/07/13 01:20:41;;;;;;;8.50;3.70;;;;;;;;;;5114854;28;20195;-80
2022/07/13 01:23:12;;;;;;;5.17;4.40;;;;;;;;;;5130504;27;20240;-81
2022/07/13 01:25:41;;;;;;;6.63;4.00;;;;;;;;;;5130466;27;20210;-81
2022/07/13 01:28:10;;;;;;;5.17;3.90;;;;;;;;;;5113098;28;20211;-79
2022/07/13 01:30:38;;;;;;;4.83;3.67;;;;;;;;;;5113242;28;20199;-79
2022/07/13 01:33:06;;;;;;;5.43;2.97;;;;;;;;;;5114439;28;20246;-79
2022/07/13 01:35:35;;;;;;;3.50;3.20;;;;;;;;;;5130645;27;20213;-79
2022/07/13 01:38:03;;;;;;;2.07;1.80;;;;;;;;;;5114076;28;20197;-79
2022/07/13 01:40:33;;;;;;;5.03;4.13;;;;;;;;;;5114310;28;20212;-79
2022/07/13 01:43:01;;;;;;;5.20;4.47;;;;;;;;;;5112700;28;20215;-80
2022/07/13 01:45:30;;;;;;;8.90;5.20;;;;;;;;;;5113249;28;20203;-80
2022/07/13 01:47:58;;;;;;;6.03;4.83;;;;;;;;;;5113127;28;20188;-80
2022/07/13 01:50:27;;;;;;;7.43;4.30;;;;;;;;;;5113404;28;20215;-80
2022/07/13 01:52:56;;;;;;;5.90;4.13;;;;;;;;;;5113902;28;20208;-79
2022/07/13 01:55:25;;;;;;;4.80;3.77;;;;;;;;;;5113122;28;20243;-80
2022/07/13 01:57:59;;;;;;;5.70;4.37;;;;;;;;;;5113648;28;20213;-80
2022/07/13 02:00:29;;;;;;;3.93;3.50;;;;;;;;;;5130046;27;20299;-80
2022/07/13 02:02:57;;;;;;;4.47;4.03;;;;;;;;;;5113583;28;20221;-81
2022/07/13 02:05:27;;;;;;;6.30;3.53;;;;;;;;;;5113073;28;20210;-80
2022/07/13 02:07:56;;;;;;;6.30;5.10;;;;;;;;;;5112506;28;20192;-80
2022/07/13 02:10:34;;;;;;;10.07;4.73;;;;;;;;;;5112711;28;20206;-80
2022/07/13 02:13:05;;;;;;;4.27;3.87;;;;;;;;;;5113414;28;20241;-80
2022/07/13 02:15:34;;;;;;;3.90;3.07;;;;;;;;;;5112580;28;20252;-78
2022/07/13 02:18:03;;;;;;;5.37;3.70;;;;;;;;;;5112607;28;20242;-80
2022/07/13 02:20:31;;;;;;;4.63;3.70;;;;;;;;;;5112805;28;20229;-80
2022/07/13 02:23:00;;;;;;;1.03;1.03;;;;;;;;;;5121987;28;20220;-80
2022/07/13 02:25:28;;;;;;;6.67;3.47;;;;;;;;;;5100094;28;20260;-80
2022/07/13 02:27:57;;;;;;;7.20;5.50;;;;;;;;;;5096732;28;20199;-79
2022/07/13 02:30:27;;;;;;;4.87;2.90;;;;;;;;;;5092312;28;20228;-80
2022/07/13 02:32:56;;;;;;;4.00;1.60;;;;;;;;;;5112888;28;20196;-79
2022/07/13 02:35:25;;;;;;;0.87;0.83;;;;;;;;;;5113465;28;20225;-78
2022/07/13 02:37:54;;;;;;;0.73;0.60;;;;;;;;;;5113471;28;20284;-78
2022/07/13 02:40:22;;;;;;;1.90;1.80;;;;;;;;;;5109739;28;20200;-78
2022/07/13 02:42:50;;;;;;;4.07;3.17;;;;;;;;;;5104100;28;20229;-79
2022/07/13 02:45:20;;;;;;;2.93;1.80;;;;;;;;;;5113268;28;20203;-79
2022/07/13 02:47:49;;;;;;;2.43;2.13;;;;;;;;;;5104021;28;20243;-80
2022/07/13 02:50:18;;;;;;;1.07;1.07;;;;;;;;;;5125386;28;20212;-80
2022/07/13 02:52:47;;;;;;;2.13;1.77;;;;;;;;;;5113509;28;20283;-80
2022/07/13 02:55:15;;;;;;;1.13;1.03;;;;;;;;;;5113279;28;20227;-79
2022/07/13 02:57:45;;;;;;;0.50;0.50;;;;;;;;;;5105688;28;20194;-80
2022/07/13 03:00:14;;;;;;;0.40;0.40;;;;;;;;;;5122463;28;20197;-79
2022/07/13 03:02:42;;;;;;;0.30;0.30;;;;;;;;;;5112205;28;20190;-80
2022/07/13 03:05:13;;;;;;;0.37;0.37;;;;;;;;;;5112149;28;20283;-80
2022/07/13 03:07:41;;;;;;;0.33;0.33;;;;;;;;;;5112369;28;20207;-79
2022/07/13 03:10:09;;;;;;;0.73;0.73;;;;;;;;;;5112016;28;20202;-80
2022/07/13 03:12:38;;;;;;;1.17;0.97;;;;;;;;;;5112032;28;20289;-80
2022/07/13 03:15:07;;;;;;;3.83;3.47;;;;;;;;;;5112146;28;20206;-80
2022/07/13 03:17:35;;;;;;;2.50;2.30;;;;;;;;;;5111790;28;20238;-80
2022/07/13 03:20:04;;;;;;;0.40;0.40;;;;;;;;;;5103470;28;20209;-80
2022/07/13 03:22:34;;;;;;;0.20;0.20;;;;;;;;;;5108013;28;20207;-80
2022/07/13 03:25:04;;;;;;;2.57;1.43;;;;;;;;;;5131139;27;20299;-80
2022/07/13 03:27:33;;;;;;;1.07;1.07;;;;;;;;;;5116772;28;20288;-80
2022/07/13 03:30:01;;;;;;;7.53;2.20;;;;;;;;;;5103105;28;20320;-80
2022/07/13 03:32:29;;;;;;;1.13;1.03;;;;;;;;;;5115500;28;20230;-80
2022/07/13 03:34:58;;;;;;;0.93;0.80;;;;;;;;;;5115677;28;20211;-80
2022/07/13 03:37:26;;;;;;;2.00;1.10;;;;;;;;;;5116879;28;20198;-80
2022/07/13 03:39:56;;;;;;;0.87;0.73;;;;;;;;;;5115348;28;20202;-79
2022/07/13 03:42:24;;;;;;;1.27;1.17;;;;;;;;;;5115836;28;20209;-79
2022/07/13 03:44:53;;;;;;;0.87;0.87;;;;;;;;;;5118068;27;20220;-79
2022/07/13 03:47:21;;;;;;;2.27;1.67;;;;;;;;;;5115095;28;20205;-80
2022/07/13 03:49:49;;;;;;;3.07;2.83;;;;;;;;;;5115508;28;20257;-79
2022/07/13 03:52:18;;;;;;;0.53;0.53;;;;;;;;;;5132494;27;20204;-79
2022/07/13 03:54:46;;;;;;;3.93;2.70;;;;;;;;;;5103014;28;20202;-79
2022/07/13 03:57:16;;;;;;;2.20;1.70;;;;;;;;;;5114534;28;20226;-78
2022/07/13 03:59:44;;;;;;;0.83;0.83;;;;;;;;;;5102855;28;20203;-79
2022/07/13 04:02:15;;;;;;;1.53;1.43;;;;;;;;;;5115228;28;20208;-79
2022/07/13 04:04:44;;;;;;;5.20;3.80;;;;;;;;;;5114861;28;20215;-79
2022/07/13 04:07:12;;;;;;;2.30;2.10;;;;;;;;;;5115141;28;20191;-79
2022/07/13 04:09:41;;;;;;;0.37;0.37;;;;;;;;;;5114829;28;20229;-79
2022/07/13 04:12:09;;;;;;;1.13;1.13;;;;;;;;;;5114905;28;20206;-79
2022/07/13 04:14:39;;;;;;;0.73;0.73;;;;;;;;;;5116012;27;20203;-79
2022/07/13 04:17:08;;;;;;;1.03;0.80;;;;;;;;;;5101290;28;20250;-80
2022/07/13 04:19:36;;;;;;;0.60;0.60;;;;;;;;;;5114630;28;20237;-79
2022/07/13 04:22:04;;;;;;;1.13;1.03;;;;;;;;;;5114916;28;20196;-79
2022/07/13 04:24:33;;;;;;;0.57;0.57;;;;;;;;;;5101095;28;20210;-79
2022/07/13 04:27:01;;;;;;;0.83;0.83;;;;;;;;;;5115933;28;20260;-79
2022/07/13 04:29:29;;;;;;;1.83;1.50;;;;;;;;;;5115478;28;20252;-79
2022/07/13 04:31:59;;;;;;;3.27;2.53;;;;;;;;;;5111497;28;20203;-80
2022/07/13 04:34:28;;;;;;;5.57;2.80;;;;;;;;;;5114084;28;20239;-79
2022/07/13 04:36:56;;;;;;;2.57;2.37;;;;;;;;;;5101654;28;20195;-79
2022/07/13 04:39:24;;;;;;;1.73;1.60;;;;;;;;;;5115559;28;20205;-78
2022/07/13 04:41:53;;;;;;;7.43;4.17;;;;;;;;;;5115150;28;20256;-79
2022/07/13 04:44:21;;;;;;;13.50;9.77;;;;;;;;;;5114103;28;20226;-79
2022/07/13 04:46:49;;;;;;;10.33;4.77;;;;;;;;;;5115268;28;20198;-79
2022/07/13 04:49:19;;;;;;;4.20;2.70;;;;;;;;;;5115415;28;20215;-79
2022/07/13 04:51:48;;;;;;;2.20;1.67;;;;;;;;;;5099537;28;20197;-79
2022/07/13 04:54:17;;;;;;;2.93;1.80;;;;;;;;;;5114016;28;20219;-78
2022/07/13 04:56:45;;;;;;;4.63;2.93;;;;;;;;;;5115168;28;20239;-79
2022/07/13 04:59:13;;;;;;;4.53;2.80;;;;;;;;;;5113816;28;20201;-78
2022/07/13 05:01:42;;;;;;;3.60;2.53;;;;;;;;;;5114616;28;20207;-78
2022/07/13 05:04:10;;;;;;;2.80;2.50;;;;;;;;;;5100021;28;20211;-79
2022/07/13 05:06:40;;;;;;;6.03;3.50;;;;;;;;;;5114022;28;20199;-78
2022/07/13 05:09:08;;;;;;;3.03;2.30;;;;;;;;;;5113739;28;20199;-79
2022/07/13 05:11:37;;;;;;;3.23;2.57;;;;;;;;;;5101976;28;20248;-78
2022/07/13 05:14:05;;;;;;;2.20;2.03;;;;;;;;;;5111794;28;20203;-79
2022/07/13 05:16:33;;;;;;;7.60;2.90;;;;;;;;;;5113545;28;20239;-79
2022/07/13 05:19:02;;;;;;;5.40;4.17;;;;;;;;;;5113403;28;20249;-79
2022/07/13 05:21:31;;;;;;;5.47;3.33;;;;;;;;;;5113634;28;20205;-79
2022/07/13 05:24:00;;;;;;;4.53;4.13;;;;;;;;;;5114456;27;20204;-79
2022/07/13 05:26:29;;;;;;;1.53;1.43;;;;;;;;;;5101130;28;20274;-79
2022/07/13 05:28:57;;;;;;;4.70;3.40;;;;;;;;;;5100078;28;20209;-79
2022/07/13 05:31:25;;;;;;;3.67;3.33;;;;;;;;;;5111153;28;20208;-79
2022/07/13 05:33:54;;;;;;;3.93;1.57;;;;;;;;;;5103557;28;20202;-79
2022/07/13 05:36:23;;;;;;;1.77;1.67;;;;;;;;;;5113162;28;20213;-79
2022/07/13 05:38:51;;;;;;;4.20;3.30;;;;;;;;;;5104818;28;20194;-79
2022/07/13 05:41:21;;;;;;;2.97;2.10;;;;;;;;;;5093629;28;20208;-79
2022/07/13 05:43:49;;;;;;;1.80;1.70;;;;;;;;;;5099835;28;20199;-79
2022/07/13 05:46:20;;;;;;;1.87;1.40;;;;;;;;;;5115967;27;20280;-79
2022/07/13 05:48:49;;;;;;;6.80;3.33;;;;;;;;;;5098489;28;20184;-79
2022/07/13 05:51:17;;;;;;;2.10;1.93;;;;;;;;;;5113057;28;20204;-79
2022/07/13 05:54:03;;;;;;;2.87;1.70;;;;;;;;;;5114105;28;20293;-79
2022/07/13 05:56:53;;;;;;;4.23;1.30;;;;;;;;;;5112994;28;20289;-79
2022/07/13 05:59:21;;;;;;;0.87;0.63;;;;;;;;;;5113141;28;20211;-79
2022/07/13 06:01:50;;;;;;;9.67;2.10;;;;;;;;;;5113923;28;20230;-79
2022/07/13 06:04:19;;;;;;;0.50;0.50;;;;;;;;;;5112703;28;20199;-79
2022/07/13 06:06:47;;;;;;;0.77;0.70;;;;;;;;;;5113599;28;20198;-79
2022/07/13 06:09:16;;;;;;;1.10;1.10;;;;;;;;;;5112648;28;20193;-79
2022/07/13 06:11:46;;;;;;;2.37;1.93;;;;;;;;;;5112597;28;20200;-79
2022/07/13 06:14:16;;;;;;;5.40;3.03;;;;;;;;;;5112485;28;20195;-79
2022/07/13 06:16:44;;;;;;;6.63;3.47;;;;;;;;;;5112494;28;20239;-79
2022/07/13 06:19:13;;;;;;;3.40;2.57;;;;;;;;;;5113641;28;20199;-79
2022/07/13 06:21:41;;;;;;;1.33;1.23;;;;;;;;;;5113730;28;20250;-79
2022/07/13 06:24:09;;;;;;;5.93;2.87;;;;;;;;;;5099256;28;20199;-79
2022/07/13 06:26:38;;;;;;;3.97;2.67;;;;;;;;;;5113613;28;20210;-79
2022/07/13 06:29:08;;;;;;;9.33;1.87;;;;;;;;;;5113757;28;20207;-79
2022/07/13 06:31:38;;;;;;;5.37;0.93;;;;;;;;;;5129128;28;20202;-79
2022/07/13 06:34:07;;;;;;;1.97;1.77;;;;;;;;;;5112386;28;20225;-79
2022/07/13 06:36:38;;;;;;;2.43;1.80;;;;;;;;;;5109176;28;20208;-79
2022/07/13 06:39:07;;;;;;;3.00;2.70;;;;;;;;;;5109109;28;20204;-79
2022/07/13 06:41:35;;;;;;;1.73;1.47;;;;;;;;;;5110429;28;20200;-79
2022/07/13 06:44:04;;;;;;;3.13;2.03;;;;;;;;;;5112765;28;20203;-79
2022/07/13 06:46:32;;;;;;;1.27;1.10;;;;;;;;;;5113431;28;20212;-80
2022/07/13 06:49:02;;;;;;;0.47;0.47;;;;;;;;;;5104842;28;20219;-79
2022/07/13 06:51:30;;;;;;;2.57;2.37;;;;;;;;;;5092574;28;20210;-80
2022/07/13 06:53:59;;;;;;;4.63;1.93;;;;;;;;;;5113331;28;20233;-79
2022/07/13 06:56:27;;;;;;;0.77;0.77;;;;;;;;;;5129670;28;20203;-79
2022/07/13 06:58:55;;;;;;;2.50;2.30;;;;;;;;;;5099643;28;20199;-79
2022/07/13 07:01:24;;;;;;;4.07;2.47;;;;;;;;;;5117206;28;20205;-80
2022/07/13 07:03:53;;;;;;;0.83;0.70;;;;;;;;;;5113306;28;20287;-79
2022/07/13 07:06:22;;;;;;;1.57;1.47;;;;;;;;;;5123482;27;20219;-80
2022/07/13 07:08:51;;;;;;;2.47;2.03;;;;;;;;;;5117019;28;20206;-79
2022/07/13 07:11:19;;;;;;;13.47;5.17;;;;;;;;;;5115788;28;20201;-79
2022/07/13 07:13:48;;;;;;;1.47;1.37;;;;;;;;;;5116328;28;20206;-79
2022/07/13 07:16:16;;;;;;;7.77;2.73;;;;;;;;;;5116681;28;20200;-79
2022/07/13 07:18:44;;;;;;;2.43;2.33;;;;;;;;;;5115626;28;20408;-80
2022/07/13 07:21:34;;;;;;;1.33;1.03;;;;;;;;;;5115930;28;20202;-79
2022/07/13 07:24:03;;;;;;;0.47;0.47;;;;;;;;;;5115979;28;20271;-78
2022/07/13 07:26:31;;;;;;;6.23;2.90;;;;;;;;;;5115438;28;20227;-78
2022/07/13 07:28:59;;;;;;;0.87;0.87;;;;;;;;;;5115801;28;20206;-78
2022/07/13 07:31:28;;;;;;;1.37;1.27;;;;;;;;;;5108003;28;20208;-77
2022/07/13 07:34:00;;;;;;;6.23;3.53;;;;;;;;;;5105443;28;20207;-77
2022/07/13 07:36:28;;;;;;;1.23;1.23;;;;;;;;;;5115403;28;20422;-78
2022/07/13 07:38:58;;;;;;;6.70;1.70;;;;;;;;;;5123643;27;20212;-78
2022/07/13 07:41:26;;;;;;;1.77;0.90;;;;;;;;;;5096207;28;20208;-78
2022/07/13 07:43:55;;;;;;;2.27;1.17;;;;;;;;;;5116654;28;20278;-78
2022/07/13 07:46:23;;;;;;;1.57;1.47;;;;;;;;;;5132311;27;20216;-78
2022/07/13 07:48:52;;;;;;;1.03;0.67;;;;;;;;;;5115193;28;20196;-77
2022/07/13 07:51:20;;;;;;;1.33;1.30;;;;;;;;;;5116265;28;20200;-78
2022/07/13 07:53:49;;;;;;;1.00;1.00;;;;;;;;;;5115179;28;20215;-78
2022/07/13 07:56:19;;;;;;;1.30;1.30;;;;;;;;;;5116274;28;20279;-78
2022/07/13 07:58:47;;;;;;;0.83;0.83;;;;;;;;;;5115895;28;20211;-78
2022/07/13 08:01:16;;;;;;;2.53;1.23;;;;;;;;;;5115317;28;20192;-78
2022/07/13 08:03:44;;;;;;;0.70;0.70;;;;;;;;;;5114888;28;20208;-78
2022/07/13 08:06:13;;;;;;;3.17;1.27;;;;;;;;;;5115089;28;20223;-78
2022/07/13 08:08:41;;;;;;;0.60;0.60;;;;;;;;;;5117329;27;20201;-78
2022/07/13 08:11:16;;;;;;;3.20;2.20;;;;;;;;;;5131519;27;20231;-78
2022/07/13 08:13:46;;;;;;;0.93;0.70;;;;;;;;;;5114637;28;20203;-78
2022/07/13 08:16:16;;;;;;;3.73;3.10;;;;;;;;;;5107559;28;20203;-78
2022/07/13 08:18:45;;;;;;;0.70;0.70;;;;;;;;;;5110486;28;20200;-78
2022/07/13 08:21:34;;;;;;;2.27;2.07;;;;;;;;;;5114361;28;20193;-78
2022/07/13 08:24:02;;;;;;;2.37;1.23;;;;;;;;;;5114434;28;20204;-78
2022/07/13 08:26:31;;;;;;;2.70;1.03;;;;;;;;;;5114628;28;20220;-78
2022/07/13 08:29:02;;;;;;;0.77;0.77;;;;;;;;;;5115686;28;20197;-78
2022/07/13 08:31:30;;;;;;;1.90;1.30;;;;;;;;;;5114509;28;20207;-78
2022/07/13 08:39:30;;;;;;;1.13;1.13;;;;;;;;;;5100634;28;20193;-78
2022/07/13 08:41:59;;;;;;;4.30;3.00;;;;;;;;;;5113937;28;20190;-78
2022/07/13 08:44:29;;;;;;;1.70;1.60;;;;;;;;;;5113964;28;20205;-78
2022/07/13 08:47:06;;;;;;;2.03;1.67;;;;;;;;;;5099659;28;20215;-78
2022/07/13 08:49:35;;;;;;;2.33;2.13;;;;;;;;;;5114430;28;20288;-78
2022/07/13 08:52:04;;;;;;;2.53;2.33;;;;;;;;;;5113808;28;20201;-78
2022/07/13 08:54:33;;;;;;;1.37;1.27;;;;;;;;;;5113899;28;20194;-78
2022/07/13 08:57:01;;;;;;;3.57;1.63;;;;;;;;;;5099545;28;20193;-78
2022/07/13 08:59:31;;;;;;;1.80;1.17;;;;;;;;;;5113952;28;20254;-78
2022/07/13 09:01:59;;;;;;;6.87;3.43;;;;;;;;;;5099446;28;20210;-78
2022/07/13 09:04:28;;;;;;;4.53;2.83;;;;;;;;;;5104891;28;20193;-78
2022/07/13 09:06:56;;;;;;;3.13;2.60;;;;;;;;;;5108882;28;20216;-78
2022/07/13 09:09:33;;;;;;;1.27;1.07;;;;;;;;;;5113444;28;20198;-78
2022/07/13 09:12:22;;;;;;;2.73;2.00;;;;;;;;;;5113205;28;20204;-78
2022/07/13 09:14:53;;;;;;;4.10;1.60;;;;;;;;;;5113781;28;20213;-79
2022/07/13 09:17:35;;;;;;;2.83;1.97;;;;;;;;;;5114350;28;20280;-78
2022/07/13 09:20:17;;;;;;;3.43;1.83;;;;;;;;;;5114365;28;20214;-79
2022/07/13 09:22:49;;;;;;;5.63;2.10;;;;;;;;;;5113838;28;20200;-78
2022/07/13 09:25:28;;;;;;;5.03;2.10;;;;;;;;;;5113670;28;20213;-78
2022/07/13 09:27:57;;;;;;;2.90;2.57;;;;;;;;;;5099791;28;20205;-78
2022/07/13 09:30:28;;;;;;;1.60;1.50;;;;;;;;;;5113219;28;20192;-78
2022/07/13 09:32:59;;;;;;;3.43;2.00;;;;;;;;;;5114138;28;20196;-78
2022/07/13 09:35:42;;;;;;;2.63;2.10;;;;;;;;;;5113337;28;20227;-78
2022/07/13 09:38:11;;;;;;;4.07;2.00;;;;;;;;;;5097585;28;20193;-78
2022/07/13 09:40:39;;;;;;;2.40;2.20;;;;;;;;;;5112075;28;20184;-78
2022/07/13 09:46:09;;;;;;;0.70;0.70;;;;;;;;;;5109420;28;20204;-78
2022/07/13 09:48:38;;;;;;;1.60;1.50;;;;;;;;;;5124693;27;20221;-78
2022/07/13 09:51:07;;;;;;;1.53;1.43;;;;;;;;;;5113121;28;20192;-79
2022/07/13 09:53:36;;;;;;;0.67;0.63;;;;;;;;;;5113069;28;20203;-78
2022/07/13 09:56:06;;;;;;;1.83;1.63;;;;;;;;;;5099613;28;20207;-79
2022/07/13 09:58:37;;;;;;;1.70;1.60;;;;;;;;;;5112574;28;20239;-78
2022/07/13 10:01:07;;;;;;;2.47;1.57;;;;;;;;;;5112611;28;20217;-78
2022/07/13 10:03:36;;;;;;;0.80;0.80;;;;;;;;;;5113754;28;20197;-78
2022/07/13 10:06:11;;;;;;;5.90;2.00;;;;;;;;;;5113200;28;20208;-78
2022/07/13 10:08:40;;;;;;;2.70;2.13;;;;;;;;;;5112476;28;20217;-79
2022/07/13 10:11:09;;;;;;;1.43;1.33;;;;;;;;;;5098341;28;20188;-79
2022/07/13 10:13:39;;;;;;;3.20;1.97;;;;;;;;;;5112690;28;20241;-79
2022/07/13 10:16:09;;;;;;;1.73;1.23;;;;;;;;;;5112751;28;20192;-78
2022/07/13 10:18:39;;;;;;;0.93;0.93;;;;;;;;;;5113580;28;20232;-78
2022/07/13 10:21:20;;;;;;;3.70;1.23;;;;;;;;;;5129653;28;20212;-79
2022/07/13 10:23:49;;;;;;;2.50;1.57;;;;;;;;;;5112621;28;20271;-79
2022/07/13 10:26:21;;;;;;;1.03;1.00;;;;;;;;;;5112333;28;20256;-79
2022/07/13 10:29:03;;;;;;;1.30;1.20;;;;;;;;;;5112367;28;20226;-79
2022/07/13 10:31:36;;;;;;;4.90;1.40;;;;;;;;;;5127234;28;20208;-79
2022/07/13 10:34:05;;;;;;;0.83;0.83;;;;;;;;;;5103236;28;20197;-78
2022/07/13 10:36:52;;;;;;;0.93;0.93;;;;;;;;;;5131093;27;20211;-78
2022/07/13 10:39:21;;;;;;;0.77;0.77;;;;;;;;;;5133859;27;20216;-79
2022/07/13 10:41:56;;;;;;;4.17;1.30;;;;;;;;;;5103361;28;20217;-79
2022/07/13 10:44:32;;;;;;;2.83;1.33;;;;;;;;;;5104521;28;20208;-79
2022/07/13 10:47:03;;;;;;;2.20;1.17;;;;;;;;;;5132817;27;20223;-79
2022/07/13 10:49:35;;;;;;;1.20;1.10;;;;;;;;;;5116345;28;20208;-79
2022/07/13 10:52:25;;;;;;;6.80;2.67;;;;;;;;;;5116470;28;20199;-79
2022/07/13 10:55:18;;;;;;;1.17;1.07;;;;;;;;;;5117203;28;20200;-78
2022/07/13 10:57:46;;;;;;;2.07;1.17;;;;;;;;;;5123259;27;20246;-78
2022/07/13 11:00:18;;;;;;;2.00;1.30;;;;;;;;;;5112546;28;20221;-78
2022/07/13 11:02:49;;;;;;;1.97;1.57;;;;;;;;;;5116269;28;20197;-78
2022/07/13 11:05:19;;;;;;;2.67;1.47;;;;;;;;;;5132950;27;20213;-78
2022/07/13 11:07:48;;;;;;;1.90;1.80;;;;;;;;;;5117013;28;20219;-78
2022/07/13 11:10:21;;;;;;;2.93;2.73;;;;;;;;;;5101467;28;20202;-78
2022/07/13 11:12:58;;;;;;;1.83;1.67;;;;;;;;;;5108131;28;20199;-78
2022/07/13 11:15:41;;;;;;;1.73;1.63;;;;;;;;;;5111275;28;20200;-78
2022/07/13 11:21:09;;;;;;;2.40;1.73;;;;;;;;;;5146367;27;20278;-77
2022/07/13 11:26:44;;;;;;;1.40;1.27;;;;;;;;;;5093841;27;20199;-77
2022/07/13 11:29:16;;;;;;;3.97;1.33;;;;;;;;;;5116179;27;20230;-78
2022/07/13 11:31:45;;;;;;;1.50;1.40;;;;;;;;;;5122306;27;20239;-78
2022/07/13 11:34:14;;;;;;;1.63;1.53;;;;;;;;;;5121164;28;20273;-78
2022/07/13 11:36:44;;;;;;;1.67;1.17;;;;;;;;;;5117450;27;20190;-78
2022/07/13 11:39:25;;;;;;;0.77;0.77;;;;;;;;;;5133590;27;20269;-79
2022/07/13 11:41:54;;;;;;;5.60;1.73;;;;;;;;;;5130376;28;20205;-78
2022/07/13 11:44:23;;;;;;;1.57;1.40;;;;;;;;;;5142219;27;20201;-79
2022/07/13 11:46:51;;;;;;;1.80;1.70;;;;;;;;;;5133443;27;20212;-79
2022/07/13 11:49:20;;;;;;;3.50;1.83;;;;;;;;;;5152041;27;20227;-80
2022/07/13 11:51:50;;;;;;;1.17;1.13;;;;;;;;;;5151670;27;20210;-79
2022/07/13 11:54:19;;;;;;;4.73;1.70;;;;;;;;;;5151547;27;20203;-79
2022/07/13 11:56:48;;;;;;;2.67;1.67;;;;;;;;;;5118696;27;20201;-79
2022/07/13 11:59:17;;;;;;;2.17;1.00;;;;;;;;;;5133339;27;20214;-79
2022/07/13 12:01:52;;;;;;;1.87;1.67;;;;;;;;;;5137064;27;20213;-79
2022/07/13 12:04:25;;;;;;;1.50;1.40;;;;;;;;;;5132989;27;20205;-79
2022/07/13 12:07:09;;;;;;;0.40;0.40;;;;;;;;;;5118948;27;20206;-79
2022/07/13 12:09:38;;;;;;;1.53;1.43;;;;;;;;;;5151348;27;20228;-79
2022/07/13 12:12:09;;;;;;;1.27;1.03;;;;;;;;;;5116838;27;20221;-79
2022/07/13 12:14:38;;;;;;;1.40;1.30;;;;;;;;;;5130674;27;20194;-79
2022/07/13 12:17:06;;;;;;;1.40;1.30;;;;;;;;;;5128082;27;20221;-79
2022/07/13 12:19:34;;;;;;;1.67;1.57;;;;;;;;;;5151174;27;20280;-79
2022/07/13 12:22:03;;;;;;;2.67;1.13;;;;;;;;;;5133040;27;20186;-79
2022/07/13 12:24:33;;;;;;;1.50;1.40;;;;;;;;;;5119063;27;20197;-79
2022/07/13 12:27:01;;;;;;;8.67;1.60;;;;;;;;;;5129419;28;20208;-79
2022/07/13 12:29:30;;;;;;;1.40;1.30;;;;;;;;;;5131917;27;20192;-78
2022/07/13 12:31:59;;;;;;;3.43;2.40;;;;;;;;;;5114173;28;20205;-79
2022/07/13 12:34:27;;;;;;;1.00;1.00;;;;;;;;;;5112682;27;20223;-78
2022/07/13 12:36:55;;;;;;;2.07;1.87;;;;;;;;;;5123239;27;20269;-79
2022/07/13 12:39:36;;;;;;;1.90;1.50;;;;;;;;;;5105952;28;20207;-79
2022/07/13 12:42:04;;;;;;;2.50;1.50;;;;;;;;;;5105096;27;20205;-79
2022/07/13 12:44:33;;;;;;;2.03;1.83;;;;;;;;;;5119068;27;20255;-79
2022/07/13 12:47:02;;;;;;;1.10;1.10;;;;;;;;;;5118307;27;20253;-79
2022/07/13 12:49:36;;;;;;;1.07;1.07;;;;;;;;;;5106753;28;20198;-79
2022/07/13 12:52:06;;;;;;;2.23;1.73;;;;;;;;;;5135924;27;20201;-79
2022/07/13 12:54:42;;;;;;;4.80;1.40;;;;;;;;;;5118705;27;20194;-79
2022/07/13 12:57:11;;;;;;;1.03;1.03;;;;;;;;;;5104019;27;20200;-79
2022/07/13 12:59:40;;;;;;;1.10;1.00;;;;;;;;;;5106667;28;20201;-79
2022/07/13 13:02:08;;;;;;;1.50;1.40;;;;;;;;;;5098266;28;20193;-78
2022/07/13 13:04:37;;;;;;;2.87;1.90;;;;;;;;;;5105282;28;20209;-80
2022/07/13 13:07:05;;;;;;;1.43;1.37;;;;;;;;;;5133017;27;20199;-80
2022/07/13 13:09:33;;;;;;;1.43;1.33;;;;;;;;;;5127378;27;20196;-80
2022/07/13 13:12:03;;;;;;;4.37;2.47;;;;;;;;;;5130215;27;20252;-80
2022/07/13 13:14:32;;;;;;;2.40;1.80;;;;;;;;;;5097949;28;20198;-80
2022/07/13 13:17:00;;;;;;;1.70;1.60;;;;;;;;;;5130554;27;20210;-80
2022/07/13 13:19:28;;;;;;;5.93;1.83;;;;;;;;;;5136119;27;20239;-77
2022/07/13 13:22:17;;;;;;;2.53;2.00;;;;;;;;;;5117697;27;20311;-79
2022/07/13 13:24:46;;;;;;;2.97;2.07;;;;;;;;;;5117794;27;20192;-79
2022/07/13 13:27:15;;;;;;;2.03;1.83;;;;;;;;;;5117658;27;20286;-80
2022/07/13 13:32:50;;;;;;;1.87;1.40;;;;;;;;;;5117494;27;20271;-79
2022/07/13 13:35:26;;;;;;;2.17;1.97;;;;;;;;;;5135825;27;20249;-79
2022/07/13 13:37:54;;;;;;;1.83;1.53;;;;;;;;;;5117883;27;20206;-79
2022/07/13 13:40:23;;;;;;;4.83;2.70;;;;;;;;;;5117887;27;20211;-79
2022/07/13 13:42:53;;;;;;;3.27;1.80;;;;;;;;;;5134720;27;20202;-79
2022/07/13 13:45:22;;;;;;;6.40;2.33;;;;;;;;;;5097176;28;20196;-79
2022/07/13 13:47:51;;;;;;;3.43;2.07;;;;;;;;;;5115408;28;20212;-80
2022/07/13 13:50:19;;;;;;;7.33;2.63;;;;;;;;;;5112750;28;20184;-79
2022/07/13 13:52:48;;;;;;;5.10;2.60;;;;;;;;;;5108583;27;20231;-79
2022/07/13 13:55:16;;;;;;;2.80;1.77;;;;;;;;;;5117339;27;20203;-79
2022/07/13 13:57:45;;;;;;;4.17;1.90;;;;;;;;;;5117417;27;20195;-80
2022/07/13 14:00:15;;;;;;;1.77;1.50;;;;;;;;;;5100797;28;20259;-79
2022/07/13 14:02:55;;;;;;;5.23;2.37;;;;;;;;;;5114867;28;20211;-79
2022/07/13 14:05:24;;;;;;;2.57;1.43;;;;;;;;;;5096808;28;20207;-79
2022/07/13 14:07:53;;;;;;;3.00;1.37;;;;;;;;;;5102418;28;20207;-80
2022/07/13 14:10:22;;;;;;;2.57;1.87;;;;;;;;;;5112508;27;20202;-80
2022/07/13 14:12:51;;;;;;;6.77;2.23;;;;;;;;;;5113601;28;20222;-79
2022/07/13 14:15:21;;;;;;;4.20;1.40;;;;;;;;;;5129596;27;20197;-79
2022/07/13 14:17:49;;;;;;;1.57;1.30;;;;;;;;;;5135011;27;20202;-79
2022/07/13 14:20:18;;;;;;;10.73;2.93;;;;;;;;;;5134954;27;20262;-79
2022/07/13 14:22:49;;;;;;;3.77;1.73;;;;;;;;;;5096673;28;20201;-80
2022/07/13 14:25:19;;;;;;;3.23;2.03;;;;;;;;;;5113657;28;20219;-79
2022/07/13 14:27:47;;;;;;;5.10;1.70;;;;;;;;;;5101901;27;20200;-79
2022/07/13 14:30:16;;;;;;;2.13;1.77;;;;;;;;;;5134997;27;20210;-79
2022/07/13 14:32:46;;;;;;;3.53;2.07;;;;;;;;;;5117028;27;20196;-80
2022/07/13 14:35:21;;;;;;;2.80;1.53;;;;;;;;;;5096351;28;20293;-80
2022/07/13 14:37:49;;;;;;;5.97;2.43;;;;;;;;;;5106807;28;20256;-79
2022/07/13 14:40:38;;;;;;;9.97;1.30;;;;;;;;;;5104930;27;20202;-79
2022/07/13 14:43:07;;;;;;;3.43;1.83;;;;;;;;;;5113351;28;20202;-79
2022/07/13 14:45:36;;;;;;;12.50;3.07;;;;;;;;;;5104587;27;20191;-79
2022/07/13 14:48:06;;;;;;;7.37;3.60;;;;;;;;;;5116453;27;20231;-78
2022/07/13 14:50:55;;;;;;;5.10;2.97;;;;;;;;;;5134609;27;20221;-78
2022/07/13 14:53:40;;;;;;;2.07;1.20;;;;;;;;;;5134670;27;20295;-78
2022/07/13 14:56:09;;;;;;;5.63;2.63;;;;;;;;;;5134889;27;20201;-79
2022/07/13 14:58:37;;;;;;;3.03;1.73;;;;;;;;;;5134462;27;20194;-79
2022/07/13 15:01:15;;;;;;;5.53;1.93;;;;;;;;;;5134744;27;20228;-80
2022/07/13 15:03:49;;;;;;;22.57;3.10;;;;;;;;;;5131858;27;20196;-80
2022/07/13 15:06:18;;;;;;;7.93;2.00;;;;;;;;;;5106474;27;20203;-80
2022/07/13 15:08:46;;;;;;;2.80;1.50;;;;;;;;;;5113443;28;20208;-80
2022/07/13 15:11:35;;;;;;;5.27;1.73;;;;;;;;;;5116100;27;20248;-80
2022/07/13 15:14:03;;;;;;;1.50;1.20;;;;;;;;;;5116452;28;20203;-79
2022/07/13 15:16:32;;;;;;;1.70;1.57;;;;;;;;;;5116191;28;20204;-79
2022/07/13 15:19:02;;;;;;;1.67;1.50;;;;;;;;;;5112768;28;20235;-79
2022/07/13 15:21:30;;;;;;;3.40;1.47;;;;;;;;;;5105052;28;20265;-79